< < Back
Terminal Aerodrome Forecast


Current Version              Previous Versions:   1  2  3  4  5  6  7  8  9  

Terminal Aerodrome Forecast

922
FTUS42 KFFC 031550 AAC
TAFATL
TAF AMD
KATL 031550Z 0316/0418 30010KT P6SM VCSH BKN020
     FM031800 30012KT P6SM SCT025 BKN035
     FM032000 30011KT P6SM BKN045
     FM040300 30010KT P6SM SCT070
     FM041200 31012KT P6SM FEW250=

Latest METAR

994
SAUS70 KWBC 032200 RRG
MTRATL
METAR KATL 032152Z 28012KT 10SM SCT040 BKN055 24/14 A2983 RMK AO2 SLP095
T02440139


USA.gov is the U.S. government's official web portal to all federal, state and local government web resources and services.